createdAt,value
2022-12-23T00:00:59.733Z,33.88
2022-12-23T00:03:27.707Z,29.05
2022-12-23T00:05:54.469Z,28.10
2022-12-23T00:08:22.181Z,33.33
2022-12-23T00:10:51.004Z,27.23
2022-12-23T00:13:17.776Z,26.13
2022-12-23T00:15:44.115Z,26.00
2022-12-23T00:18:10.489Z,25.25
2022-12-23T00:20:36.845Z,26.15
2022-12-23T00:23:03.270Z,27.70
2022-12-23T00:25:29.723Z,23.10
2022-12-23T00:27:56.079Z,22.80
2022-12-23T00:30:22.501Z,23.38
2022-12-23T00:32:48.893Z,25.17
2022-12-23T00:35:15.302Z,24.98
2022-12-23T00:37:41.656Z,28.52
2022-12-23T00:40:12.552Z,22.67
2022-12-23T00:42:39.221Z,23.23
2022-12-23T00:45:06.072Z,21.85
2022-12-23T00:47:32.419Z,24.45
2022-12-23T00:49:58.945Z,25.02
2022-12-23T00:52:25.483Z,25.95
2022-12-23T00:54:52.044Z,25.88
2022-12-23T00:57:18.384Z,27.90
2022-12-23T00:59:44.724Z,26.27
2022-12-23T01:02:12.124Z,28.58
2022-12-23T01:04:38.550Z,26.25
2022-12-23T01:07:05.434Z,27.75
2022-12-23T01:09:31.939Z,27.92
2022-12-23T01:11:58.459Z,27.42
2022-12-23T01:14:25.222Z,27.10
2022-12-23T01:16:51.776Z,29.08
2022-12-23T01:19:18.298Z,28.05
2022-12-23T01:21:44.878Z,31.23
2022-12-23T01:24:11.674Z,25.42
2022-12-23T01:26:38.095Z,31.08
2022-12-23T01:29:04.672Z,30.33
2022-12-23T01:31:31.811Z,32.30
2022-12-23T01:33:58.311Z,31.90
2022-12-23T01:36:24.748Z,29.80
2022-12-23T01:38:51.792Z,29.02
2022-12-23T01:41:23.099Z,34.42
2022-12-23T01:43:51.727Z,27.42
2022-12-23T01:46:18.371Z,35.25
2022-12-23T01:48:49.341Z,28.90
2022-12-23T01:51:24.192Z,31.08
2022-12-23T01:53:54.744Z,29.42
2022-12-23T01:56:23.968Z,27.70
2022-12-23T01:58:55.619Z,24.35
2022-12-23T02:01:22.219Z,22.95
2022-12-23T02:03:51.436Z,28.00
2022-12-23T02:06:25.116Z,23.50
2022-12-23T02:08:51.441Z,26.38
2022-12-23T02:11:30.102Z,28.77
2022-12-23T02:14:02.434Z,23.33
2022-12-23T02:16:33.446Z,28.70
2022-12-23T02:19:13.335Z,27.73
2022-12-23T02:22:00.626Z,26.58
2022-12-23T02:24:39.681Z,25.85
2022-12-23T02:27:16.219Z,22.98
2022-12-23T02:30:03.702Z,21.52
2022-12-23T02:32:37.317Z,25.02
2022-12-23T02:35:08.350Z,22.83
2022-12-23T02:37:44.354Z,20.15
2022-12-23T02:40:30.927Z,23.40
2022-12-23T02:43:01.410Z,22.35
2022-12-23T02:45:41.105Z,23.67
2022-12-23T02:48:17.103Z,20.60
2022-12-23T02:50:46.959Z,22.73
2022-12-23T02:53:23.795Z,20.65
2022-12-23T02:55:52.852Z,23.98
2022-12-23T02:58:24.160Z,23.00
2022-12-23T03:00:51.319Z,21.63
2022-12-23T03:03:17.852Z,22.20
2022-12-23T03:05:47.047Z,19.88
2022-12-23T03:08:18.838Z,23.52
2022-12-23T03:10:54.074Z,20.48
2022-12-23T03:13:45.232Z,19.75
2022-12-23T03:16:26.786Z,23.77
2022-12-23T03:19:16.669Z,20.73
2022-12-23T03:22:23.147Z,23.13
2022-12-23T03:25:00.842Z,23.42
2022-12-23T03:27:42.723Z,23.48
2022-12-23T03:30:16.517Z,24.60
2022-12-23T03:33:06.613Z,22.75
2022-12-23T03:35:40.123Z,27.17
2022-12-23T03:38:08.050Z,26.60
2022-12-23T03:40:41.498Z,24.13
2022-12-23T03:43:16.407Z,27.98
2022-12-23T03:45:48.688Z,26.73
2022-12-23T03:48:37.552Z,27.38
2022-12-23T03:51:14.131Z,27.42
2022-12-23T03:53:50.419Z,23.65
2022-12-23T03:56:21.650Z,27.48
2022-12-23T03:58:59.180Z,26.60
2022-12-23T04:01:31.960Z,27.85
2022-12-23T04:04:07.448Z,30.63
2022-12-23T04:06:41.641Z,29.80
2022-12-23T04:09:08.527Z,29.92
2022-12-23T04:11:35.870Z,32.20
2022-12-23T04:14:02.243Z,31.02
2022-12-23T04:16:29.481Z,36.42
2022-12-23T04:18:55.989Z,35.17
2022-12-23T04:21:22.430Z,41.65
2022-12-23T04:23:48.887Z,32.65
2022-12-23T04:26:15.429Z,42.78
2022-12-23T04:28:41.773Z,39.85
2022-12-23T04:31:08.161Z,41.40
2022-12-23T04:33:34.553Z,37.72
2022-12-23T04:36:00.939Z,43.35
2022-12-23T04:38:27.613Z,47.55
2022-12-23T04:40:53.970Z,48.65
2022-12-23T04:43:20.531Z,45.40
2022-12-23T04:45:50.354Z,48.08
2022-12-23T04:48:17.188Z,47.85
2022-12-23T04:50:43.671Z,46.72
2022-12-23T04:53:10.098Z,48.22
2022-12-23T04:55:36.415Z,50.88
2022-12-23T04:58:02.810Z,50.13
2022-12-23T05:00:31.566Z,46.63
2022-12-23T05:03:01.967Z,52.35
2022-12-23T05:05:28.495Z,55.58
2022-12-23T05:08:02.972Z,42.30
2022-12-23T05:10:29.332Z,40.53
2022-12-23T05:12:55.683Z,27.35
2022-12-23T05:15:22.070Z,30.25
2022-12-23T05:17:48.438Z,32.70
2022-12-23T05:20:14.834Z,43.22
2022-12-23T05:22:41.186Z,37.75
2022-12-23T05:25:08.200Z,41.42
2022-12-23T05:27:36.419Z,42.95
2022-12-23T05:30:03.561Z,33.08
2022-12-23T05:32:29.919Z,35.28
2022-12-23T05:34:56.295Z,30.52
2022-12-23T05:37:22.601Z,29.02
2022-12-23T05:39:48.971Z,28.90
2022-12-23T05:42:15.291Z,28.52
2022-12-23T05:44:41.680Z,25.23
2022-12-23T05:47:08.036Z,25.58
2022-12-23T05:49:34.388Z,23.90
2022-12-23T05:52:00.707Z,24.17
2022-12-23T05:54:27.189Z,22.10
2022-12-23T05:56:53.568Z,26.92
2022-12-23T05:59:19.955Z,24.30
2022-12-23T06:01:46.475Z,21.10
2022-12-23T06:04:13.101Z,22.00
2022-12-23T06:06:39.495Z,16.35
2022-12-23T06:09:06.076Z,17.60
2022-12-23T06:11:32.453Z,20.00
2022-12-23T06:13:58.855Z,15.98
2022-12-23T06:16:25.259Z,17.92
2022-12-23T06:18:55.241Z,21.40
2022-12-23T06:21:21.642Z,19.05
2022-12-23T06:23:47.980Z,22.55
2022-12-23T06:26:14.306Z,23.65
2022-12-23T06:28:40.667Z,24.50
2022-12-23T06:31:07.073Z,18.95
2022-12-23T06:33:33.423Z,21.33
2022-12-23T06:35:59.847Z,26.25
2022-12-23T06:38:26.200Z,25.50
2022-12-23T06:40:52.576Z,26.63
2022-12-23T06:43:19.083Z,22.20
2022-12-23T06:45:48.751Z,19.77
2022-12-23T06:48:16.019Z,22.98
2022-12-23T06:50:42.656Z,22.85
2022-12-23T06:53:09.178Z,23.92
2022-12-23T06:55:35.859Z,22.88
2022-12-23T06:58:02.298Z,17.80
2022-12-23T07:00:28.662Z,21.10
2022-12-23T07:02:55.119Z,20.70
2022-12-23T07:05:21.913Z,20.38
2022-12-23T07:07:48.290Z,16.05
2022-12-23T07:10:14.683Z,19.27
2022-12-23T07:12:46.020Z,21.98
2022-12-23T07:15:15.444Z,21.70
2022-12-23T07:17:41.867Z,18.92
2022-12-23T07:20:08.844Z,23.88
2022-12-23T07:22:35.193Z,25.95
2022-12-23T07:25:01.566Z,24.42
2022-12-23T07:27:28.079Z,22.23
2022-12-23T07:29:54.400Z,22.92
2022-12-23T07:32:20.761Z,30.00
2022-12-23T07:34:47.118Z,25.20
2022-12-23T07:37:13.486Z,22.75
2022-12-23T07:39:39.797Z,20.30
2022-12-23T07:42:42.774Z,21.58
2022-12-23T07:44:52.520Z,23.27
2022-12-23T07:47:18.939Z,21.00
2022-12-23T07:49:45.296Z,21.38
2022-12-23T07:52:11.641Z,21.10
2022-12-23T07:54:38.019Z,21.40
2022-12-23T07:57:04.390Z,22.90
2022-12-23T07:59:30.865Z,24.50
2022-12-23T08:01:57.440Z,24.38
2022-12-23T08:04:23.829Z,22.60
2022-12-23T08:06:50.189Z,23.15
2022-12-23T08:09:16.491Z,26.45
2022-12-23T08:11:42.877Z,27.98
2022-12-23T08:14:09.306Z,27.63
2022-12-23T08:16:43.056Z,29.98
2022-12-23T08:19:10.080Z,29.83
2022-12-23T08:21:36.508Z,31.80
2022-12-23T08:24:02.937Z,31.33
2022-12-23T08:26:29.324Z,27.77
2022-12-23T08:28:55.747Z,30.25
2022-12-23T08:31:30.329Z,27.60
2022-12-23T08:33:58.036Z,31.80
2022-12-23T08:36:30.770Z,31.00
2022-12-23T08:38:59.677Z,30.58
2022-12-23T08:41:30.523Z,33.88
2022-12-23T08:43:57.691Z,32.00
2022-12-23T08:46:24.919Z,34.05
2022-12-23T08:48:52.281Z,28.55
2022-12-23T08:51:20.454Z,30.33
2022-12-23T08:53:47.460Z,32.45
2022-12-23T08:56:18.120Z,27.38
2022-12-23T08:58:46.719Z,37.47
2022-12-23T09:01:15.922Z,35.22
2022-12-23T09:03:43.867Z,30.75
2022-12-23T09:06:24.737Z,31.92
2022-12-23T09:08:55.412Z,32.20
2022-12-23T09:11:24.112Z,32.85
2022-12-23T09:13:50.692Z,36.42
2022-12-23T09:16:17.978Z,33.92
2022-12-23T09:18:44.442Z,36.08
2022-12-23T09:21:15.820Z,38.63
2022-12-23T09:23:42.575Z,45.50
2022-12-23T09:26:10.221Z,46.33
2022-12-23T09:28:37.269Z,48.63
2022-12-23T09:31:11.648Z,56.15
2022-12-23T09:33:38.717Z,39.78
2022-12-23T09:36:06.085Z,46.65
2022-12-23T09:38:33.632Z,44.10
2022-12-23T09:41:09.839Z,45.75
2022-12-23T09:43:51.383Z,51.80
2022-12-23T09:46:21.654Z,49.83
2022-12-23T09:49:03.325Z,51.97
2022-12-23T09:51:30.828Z,47.13
2022-12-23T09:54:08.696Z,52.42
2022-12-23T09:57:03.590Z,45.28
2022-12-23T09:59:48.343Z,46.13
2022-12-23T10:02:31.752Z,45.50
2022-12-23T10:05:13.381Z,49.60
2022-12-23T10:07:48.137Z,56.53
2022-12-23T10:10:35.547Z,52.72
2022-12-23T10:13:05.132Z,55.92
2022-12-23T10:15:37.744Z,57.13
2022-12-23T10:18:15.173Z,64.32
2022-12-23T10:20:48.639Z,58.97
2022-12-23T10:23:27.536Z,64.88
2022-12-23T10:25:54.381Z,60.47
2022-12-23T10:28:20.832Z,62.42
2022-12-23T10:33:57.200Z,63.50
2022-12-23T10:36:39.281Z,64.05
2022-12-23T10:39:15.888Z,58.28
2022-12-23T10:41:47.997Z,57.72
2022-12-23T10:44:35.961Z,53.55
2022-12-23T10:47:24.394Z,56.50
2022-12-23T10:50:22.970Z,56.60
2022-12-23T10:52:52.018Z,65.80
2022-12-23T10:55:31.282Z,59.40
2022-12-23T10:58:12.880Z,65.72
2022-12-23T11:00:43.027Z,61.83
2022-12-23T11:03:21.551Z,61.58
2022-12-23T11:05:51.348Z,59.25
2022-12-23T11:08:20.072Z,70.15
2022-12-23T11:10:47.184Z,64.70
2022-12-23T11:13:41.032Z,67.72
2022-12-23T11:16:18.048Z,61.05
2022-12-23T11:19:05.417Z,68.13
2022-12-23T11:21:32.897Z,70.32
2022-12-23T11:24:09.972Z,58.90
2022-12-23T11:26:36.826Z,69.70
2022-12-23T11:29:09.472Z,89.43
2022-12-23T11:31:36.714Z,81.07
2022-12-23T11:34:13.760Z,84.00
2022-12-23T11:36:41.145Z,90.43
2022-12-23T11:39:10.679Z,84.95
2022-12-23T11:42:03.239Z,83.80
2022-12-23T11:44:32.289Z,78.10
2022-12-23T11:47:19.155Z,84.03
2022-12-23T11:50:03.583Z,72.57
2022-12-23T11:52:32.104Z,72.60
2022-12-23T11:55:01.075Z,92.32
2022-12-23T11:57:38.434Z,78.50
2022-12-23T12:00:07.820Z,69.57
2022-12-23T12:02:42.919Z,69.10
2022-12-23T12:05:15.341Z,80.30
2022-12-23T12:07:44.116Z,59.08
2022-12-23T12:10:28.104Z,77.40
2022-12-23T12:13:02.551Z,56.75
2022-12-23T12:15:38.760Z,62.05
2022-12-23T12:18:08.884Z,72.90
2022-12-23T12:20:45.762Z,68.53
2022-12-23T12:23:22.895Z,55.20
2022-12-23T12:25:55.103Z,52.50
2022-12-23T12:31:05.747Z,51.97
2022-12-23T12:33:49.967Z,57.25
2022-12-23T12:36:40.962Z,48.33
2022-12-23T12:39:18.055Z,42.05
2022-12-23T12:41:58.486Z,50.55
2022-12-23T12:44:45.784Z,59.80
2022-12-23T12:50:23.276Z,44.25
2022-12-23T12:52:53.087Z,49.58
2022-12-23T12:55:29.657Z,52.05
2022-12-23T12:57:56.188Z,45.40
2022-12-23T13:00:24.449Z,52.38
2022-12-23T13:03:18.684Z,42.42
2022-12-23T13:06:11.847Z,47.05
2022-12-23T13:08:49.173Z,45.85
2022-12-23T13:11:48.585Z,43.92
2022-12-23T13:14:30.594Z,48.17
2022-12-23T13:17:10.989Z,44.80
2022-12-23T13:19:58.686Z,44.35
2022-12-23T13:22:28.442Z,47.95
2022-12-23T13:25:20.130Z,41.72
2022-12-23T13:27:57.337Z,42.60
2022-12-23T13:30:28.711Z,45.03
2022-12-23T13:33:20.135Z,50.70
2022-12-23T13:36:18.522Z,39.47
2022-12-23T13:39:09.605Z,43.22
2022-12-23T13:41:51.985Z,51.83
2022-12-23T13:44:20.497Z,43.40
2022-12-23T13:47:09.629Z,42.97
2022-12-23T13:49:45.076Z,39.55
2022-12-23T13:52:53.840Z,47.72
2022-12-23T13:55:48.189Z,51.63
2022-12-23T13:58:24.483Z,45.92
2022-12-23T14:00:57.972Z,46.05
2022-12-23T14:03:31.927Z,45.28
2022-12-23T14:05:58.521Z,47.58
2022-12-23T14:08:26.816Z,47.65
2022-12-23T14:11:00.886Z,51.85
2022-12-23T14:13:30.215Z,41.95
2022-12-23T14:16:12.993Z,48.05
2022-12-23T14:19:19.610Z,45.75
2022-12-23T14:22:22.368Z,50.30
2022-12-23T14:25:03.807Z,50.30
2022-12-23T14:27:45.446Z,43.47
2022-12-23T14:30:42.014Z,42.95
2022-12-23T14:33:32.972Z,41.55
2022-12-23T14:36:21.400Z,49.58
2022-12-23T14:39:12.500Z,49.53
2022-12-23T14:41:48.675Z,48.53
2022-12-23T14:44:40.804Z,40.20
2022-12-23T14:47:28.805Z,35.85
2022-12-23T14:49:55.313Z,28.75
2022-12-23T14:52:47.428Z,39.97
2022-12-23T14:55:30.423Z,36.75
2022-12-23T14:58:17.477Z,32.17
2022-12-23T15:00:50.884Z,32.35
2022-12-23T15:03:20.179Z,31.27
2022-12-23T15:05:46.999Z,36.13
2022-12-23T15:08:36.825Z,32.30
2022-12-23T15:11:05.541Z,32.65
2022-12-23T15:13:33.043Z,34.45
2022-12-23T15:16:02.069Z,29.77
2022-12-23T15:18:29.215Z,31.70
2022-12-23T15:21:03.723Z,34.92
2022-12-23T15:23:30.228Z,34.92
2022-12-23T15:26:01.497Z,32.47
2022-12-23T15:28:37.675Z,27.80
2022-12-23T15:31:05.634Z,30.05
2022-12-23T15:34:06.142Z,31.95
2022-12-23T15:36:34.067Z,31.42
2022-12-23T15:39:01.489Z,32.00
2022-12-23T15:41:28.281Z,30.83
2022-12-23T15:43:59.397Z,35.50
2022-12-23T15:46:30.179Z,35.78
2022-12-23T15:48:57.175Z,33.22
2022-12-23T15:52:06.291Z,27.92
2022-12-23T15:54:33.099Z,20.98
2022-12-23T15:57:01.647Z,25.10
2022-12-23T15:59:33.990Z,29.83
2022-12-23T16:05:28.782Z,26.52
2022-12-23T16:08:28.683Z,30.77
2022-12-23T16:11:02.167Z,28.52
2022-12-23T16:13:28.666Z,33.17
2022-12-23T16:15:55.340Z,37.88
2022-12-23T16:18:27.121Z,32.88
2022-12-23T16:21:01.135Z,36.28
2022-12-23T16:23:35.445Z,37.22
2022-12-23T16:26:02.940Z,35.65
2022-12-23T16:28:44.723Z,36.33
2022-12-23T16:31:16.426Z,36.03
2022-12-23T16:33:45.621Z,41.25
2022-12-23T16:36:25.444Z,50.17
2022-12-23T16:38:58.620Z,30.52
2022-12-23T16:41:25.064Z,35.10
2022-12-23T16:43:52.851Z,41.80
2022-12-23T16:46:22.206Z,45.03
2022-12-23T16:48:50.119Z,43.00
2022-12-23T16:51:19.060Z,37.97
2022-12-23T16:53:49.916Z,40.50
2022-12-23T16:56:19.365Z,46.08
2022-12-23T16:58:46.460Z,35.13
2022-12-23T17:01:21.881Z,41.47
2022-12-23T17:03:48.411Z,33.05
2022-12-23T17:06:16.199Z,35.45
2022-12-23T17:08:43.155Z,34.05
2022-12-23T17:11:18.424Z,45.17
2022-12-23T17:13:44.889Z,41.22
2022-12-23T17:16:17.460Z,38.35
2022-12-23T17:18:43.855Z,32.47
2022-12-23T17:21:19.852Z,39.33
2022-12-23T17:23:46.504Z,38.75
2022-12-23T17:26:12.861Z,45.88
2022-12-23T17:28:39.359Z,52.00
2022-12-23T17:31:13.772Z,55.95
2022-12-23T17:33:41.297Z,52.42
2022-12-23T17:36:09.905Z,56.20
2022-12-23T17:38:36.363Z,45.75
2022-12-23T17:41:04.338Z,42.33
2022-12-23T17:43:30.726Z,61.72
2022-12-23T17:45:57.195Z,48.03
2022-12-23T17:48:29.581Z,62.40
2022-12-23T17:50:58.213Z,56.67
2022-12-23T17:53:24.788Z,105.28
2022-12-23T17:55:51.160Z,77.32
2022-12-23T17:58:17.539Z,97.22
2022-12-23T18:00:43.906Z,69.70
2022-12-23T18:03:21.761Z,76.75
2022-12-23T18:05:48.154Z,65.57
2022-12-23T18:08:14.519Z,50.90
2022-12-23T18:10:41.001Z,74.90
2022-12-23T18:13:13.222Z,67.13
2022-12-23T18:18:22.328Z,32.80
2022-12-23T18:20:56.490Z,38.08
2022-12-23T18:23:29.183Z,22.42
2022-12-23T18:25:56.649Z,48.33
2022-12-23T18:28:26.185Z,51.20
2022-12-23T18:30:55.477Z,60.60
2022-12-23T18:33:22.066Z,41.53
2022-12-23T18:35:50.005Z,40.55
2022-12-23T18:38:17.611Z,54.17
2022-12-23T18:40:44.716Z,60.50
2022-12-23T18:43:19.739Z,49.22
2022-12-23T18:45:50.817Z,55.65
2022-12-23T18:48:19.384Z,57.15
2022-12-23T18:50:45.708Z,49.45
2022-12-23T18:53:24.387Z,42.30
2022-12-23T18:55:52.487Z,46.13
2022-12-23T18:58:19.093Z,46.78
2022-12-23T19:00:46.640Z,50.17
2022-12-23T19:03:22.354Z,45.25
2022-12-23T19:05:49.762Z,42.25
2022-12-23T19:08:21.869Z,44.72
2022-12-23T19:10:53.344Z,35.65
2022-12-23T19:13:19.740Z,37.92
2022-12-23T19:15:46.248Z,39.53
2022-12-23T19:18:19.084Z,35.53
2022-12-23T19:20:46.644Z,37.75
2022-12-23T19:23:14.145Z,34.25
2022-12-23T19:25:42.203Z,33.42
2022-12-23T19:28:08.939Z,41.78
2022-12-23T19:30:35.859Z,33.05
2022-12-23T19:33:02.270Z,33.28
2022-12-23T19:35:28.621Z,29.00
2022-12-23T19:37:55.031Z,25.20
2022-12-23T19:40:21.516Z,25.05
2022-12-23T19:42:47.872Z,24.65
2022-12-23T19:45:14.243Z,18.65
2022-12-23T19:47:41.849Z,21.50
2022-12-23T19:50:11.380Z,23.63
2022-12-23T19:52:37.934Z,21.08
2022-12-23T19:55:04.756Z,19.98
2022-12-23T19:57:31.251Z,15.82
2022-12-23T19:59:57.706Z,21.17
2022-12-23T20:02:24.253Z,19.55
2022-12-23T20:04:50.616Z,20.42
2022-12-23T20:07:17.251Z,30.63
2022-12-23T20:09:43.704Z,21.30
2022-12-23T20:12:12.008Z,26.02
2022-12-23T20:14:38.437Z,24.33
2022-12-23T20:17:04.980Z,29.58
2022-12-23T20:19:31.490Z,29.27
2022-12-23T20:21:58.043Z,21.58
2022-12-23T20:24:24.432Z,24.75
2022-12-23T20:26:50.828Z,35.53
2022-12-23T20:29:18.484Z,30.77
2022-12-23T20:31:45.015Z,30.63
2022-12-23T20:34:16.006Z,31.95
2022-12-23T20:36:42.626Z,30.33
2022-12-23T20:39:09.212Z,36.47
2022-12-23T20:41:35.577Z,44.05
2022-12-23T20:46:48.414Z,32.65
2022-12-23T20:49:14.913Z,25.10
2022-12-23T20:51:41.328Z,34.08
2022-12-23T20:54:07.688Z,28.60
2022-12-23T20:56:34.001Z,32.92
2022-12-23T20:59:00.474Z,30.73
2022-12-23T21:01:35.869Z,32.53
2022-12-23T21:04:05.488Z,34.00
2022-12-23T21:06:32.307Z,35.97
2022-12-23T21:09:00.039Z,25.88
2022-12-23T21:11:31.725Z,29.17
2022-12-23T21:14:04.156Z,37.35
2022-12-23T21:16:32.977Z,26.27
2022-12-23T21:18:59.807Z,27.88
2022-12-23T21:21:27.611Z,27.92
2022-12-23T21:23:56.137Z,26.33
2022-12-23T21:26:25.903Z,28.58
2022-12-23T21:28:54.246Z,29.88
2022-12-23T21:31:23.141Z,22.58
2022-12-23T21:33:50.945Z,26.98
2022-12-23T21:36:20.630Z,21.40
2022-12-23T21:38:48.682Z,30.92
2022-12-23T21:41:18.790Z,21.75
2022-12-23T21:43:45.332Z,25.35
2022-12-23T21:46:14.596Z,28.35
2022-12-23T21:48:41.195Z,29.17
2022-12-23T21:51:14.602Z,23.50
2022-12-23T21:53:42.223Z,26.05
2022-12-23T21:56:12.011Z,17.95
2022-12-23T21:58:38.888Z,21.50
2022-12-23T22:01:10.698Z,25.65
2022-12-23T22:03:37.394Z,20.75
2022-12-23T22:06:10.233Z,26.40
2022-12-23T22:08:38.076Z,20.17
2022-12-23T22:11:13.456Z,20.35
2022-12-23T22:13:40.439Z,15.63
2022-12-23T22:16:15.384Z,17.52
2022-12-23T22:18:42.535Z,16.55
2022-12-23T22:21:12.350Z,17.85
2022-12-23T22:23:39.491Z,14.98
2022-12-23T22:26:07.747Z,17.63
2022-12-23T22:28:36.355Z,19.02
2022-12-23T22:31:04.442Z,16.52
2022-12-23T22:33:32.111Z,13.50
2022-12-23T22:35:58.670Z,17.13
2022-12-23T22:38:25.228Z,18.25
2022-12-23T22:40:52.701Z,16.35
2022-12-23T22:43:19.931Z,18.70
2022-12-23T22:45:46.450Z,17.30
2022-12-23T22:48:13.228Z,19.23
2022-12-23T22:50:39.817Z,18.90
2022-12-23T22:53:06.212Z,14.95
2022-12-23T22:55:32.664Z,14.40
2022-12-23T22:57:59.020Z,16.60
2022-12-23T23:00:25.412Z,15.27
2022-12-23T23:02:51.807Z,19.48
2022-12-23T23:05:18.320Z,14.88
2022-12-23T23:07:44.683Z,18.67
2022-12-23T23:10:11.391Z,16.02
2022-12-23T23:12:37.785Z,15.25
2022-12-23T23:15:04.649Z,12.63
2022-12-23T23:17:31.098Z,17.88
2022-12-23T23:19:57.443Z,15.65
2022-12-23T23:22:24.602Z,19.27
2022-12-23T23:24:51.294Z,20.77
2022-12-23T23:27:17.687Z,22.98
2022-12-23T23:29:44.329Z,20.48
2022-12-23T23:32:11.137Z,20.88
2022-12-23T23:34:37.581Z,13.65
2022-12-23T23:37:04.299Z,19.48
2022-12-23T23:39:30.784Z,19.38
2022-12-23T23:41:57.296Z,17.88
2022-12-23T23:44:23.617Z,15.48
2022-12-23T23:46:49.986Z,19.63
2022-12-23T23:49:16.404Z,19.67
2022-12-23T23:51:42.816Z,15.80
2022-12-23T23:54:09.465Z,18.42
2022-12-23T23:56:38.748Z,17.52
2022-12-23T23:59:05.643Z,18.00
